sensor_id;sensor_type;location;lat;lon;timestamp;P1;durP1;ratioP1;P2;durP2;ratioP2
13408;SDS011;6775;49.574;11.170;2023-04-15T00:01:48;5.10;;;4.60;;
13408;SDS011;6775;49.574;11.170;2023-04-15T00:04:18;5.37;;;4.57;;
13408;SDS011;6775;49.574;11.170;2023-04-15T00:06:49;4.87;;;4.47;;
13408;SDS011;6775;49.574;11.170;2023-04-15T00:09:18;4.53;;;4.10;;
13408;SDS011;6775;49.574;11.170;2023-04-15T00:11:46;5.30;;;4.63;;
13408;SDS011;6775;49.574;11.170;2023-04-15T00:14:14;4.73;;;4.30;;
13408;SDS011;6775;49.574;11.170;2023-04-15T00:16:41;4.73;;;4.30;;
13408;SDS011;6775;49.574;11.170;2023-04-15T00:19:09;5.80;;;5.30;;
13408;SDS011;6775;49.574;11.170;2023-04-15T00:21:38;5.30;;;4.37;;
13408;SDS011;6775;49.574;11.170;2023-04-15T00:24:07;5.53;;;4.83;;
13408;SDS011;6775;49.574;11.170;2023-04-15T00:26:34;5.10;;;4.50;;
13408;SDS011;6775;49.574;11.170;2023-04-15T00:29:02;4.87;;;4.40;;
13408;SDS011;6775;49.574;11.170;2023-04-15T00:31:30;5.63;;;5.00;;
13408;SDS011;6775;49.574;11.170;2023-04-15T00:33:58;6.13;;;4.63;;
13408;SDS011;6775;49.574;11.170;2023-04-15T00:36:27;5.17;;;4.67;;
13408;SDS011;6775;49.574;11.170;2023-04-15T00:38:56;5.80;;;4.83;;
13408;SDS011;6775;49.574;11.170;2023-04-15T00:41:24;4.93;;;4.33;;
13408;SDS011;6775;49.574;11.170;2023-04-15T00:43:52;5.57;;;4.23;;
13408;SDS011;6775;49.574;11.170;2023-04-15T00:46:20;5.87;;;4.80;;
13408;SDS011;6775;49.574;11.170;2023-04-15T00:48:48;4.90;;;4.40;;
13408;SDS011;6775;49.574;11.170;2023-04-15T00:51:18;5.50;;;5.00;;
13408;SDS011;6775;49.574;11.170;2023-04-15T00:53:45;5.33;;;4.83;;
13408;SDS011;6775;49.574;11.170;2023-04-15T00:56:15;5.30;;;4.80;;
13408;SDS011;6775;49.574;11.170;2023-04-15T00:58:42;5.37;;;4.87;;
13408;SDS011;6775;49.574;11.170;2023-04-15T01:01:10;5.93;;;5.00;;
13408;SDS011;6775;49.574;11.170;2023-04-15T01:03:38;7.50;;;5.30;;
13408;SDS011;6775;49.574;11.170;2023-04-15T01:06:06;6.23;;;4.63;;
13408;SDS011;6775;49.574;11.170;2023-04-15T01:08:34;6.10;;;5.03;;
13408;SDS011;6775;49.574;11.170;2023-04-15T01:11:02;6.37;;;5.53;;
13408;SDS011;6775;49.574;11.170;2023-04-15T01:13:31;7.17;;;5.13;;
13408;SDS011;6775;49.574;11.170;2023-04-15T01:16:00;4.73;;;4.33;;
13408;SDS011;6775;49.574;11.170;2023-04-15T01:18:28;5.77;;;4.90;;
13408;SDS011;6775;49.574;11.170;2023-04-15T01:20:57;4.77;;;4.37;;
13408;SDS011;6775;49.574;11.170;2023-04-15T01:23:28;4.47;;;4.07;;
13408;SDS011;6775;49.574;11.170;2023-04-15T01:25:58;3.93;;;3.63;;
13408;SDS011;6775;49.574;11.170;2023-04-15T01:28:26;4.37;;;3.97;;
13408;SDS011;6775;49.574;11.170;2023-04-15T01:31:04;4.00;;;3.60;;
13408;SDS011;6775;49.574;11.170;2023-04-15T01:33:35;4.47;;;3.63;;
13408;SDS011;6775;49.574;11.170;2023-04-15T01:36:03;4.53;;;4.13;;
13408;SDS011;6775;49.574;11.170;2023-04-15T01:38:33;4.07;;;3.67;;
13408;SDS011;6775;49.574;11.170;2023-04-15T01:41:03;4.47;;;3.87;;
13408;SDS011;6775;49.574;11.170;2023-04-15T01:43:32;3.90;;;3.57;;
13408;SDS011;6775;49.574;11.170;2023-04-15T01:46:01;4.03;;;3.63;;
13408;SDS011;6775;49.574;11.170;2023-04-15T01:48:29;4.43;;;4.03;;
13408;SDS011;6775;49.574;11.170;2023-04-15T01:50:57;4.10;;;3.67;;
13408;SDS011;6775;49.574;11.170;2023-04-15T01:53:25;4.57;;;3.70;;
13408;SDS011;6775;49.574;11.170;2023-04-15T01:55:53;4.90;;;4.00;;
13408;SDS011;6775;49.574;11.170;2023-04-15T01:58:22;5.03;;;4.13;;
13408;SDS011;6775;49.574;11.170;2023-04-15T02:00:50;4.67;;;3.87;;
13408;SDS011;6775;49.574;11.170;2023-04-15T02:03:18;3.77;;;3.47;;
13408;SDS011;6775;49.574;11.170;2023-04-15T02:05:47;4.77;;;3.50;;
13408;SDS011;6775;49.574;11.170;2023-04-15T02:08:16;3.90;;;3.50;;
13408;SDS011;6775;49.574;11.170;2023-04-15T02:10:43;3.40;;;3.03;;
13408;SDS011;6775;49.574;11.170;2023-04-15T02:13:11;4.37;;;3.40;;
13408;SDS011;6775;49.574;11.170;2023-04-15T02:15:41;4.30;;;3.90;;
13408;SDS011;6775;49.574;11.170;2023-04-15T02:18:13;3.43;;;3.13;;
13408;SDS011;6775;49.574;11.170;2023-04-15T02:20:41;4.17;;;3.73;;
13408;SDS011;6775;49.574;11.170;2023-04-15T02:23:09;4.77;;;3.60;;
13408;SDS011;6775;49.574;11.170;2023-04-15T02:25:37;5.33;;;3.50;;
13408;SDS011;6775;49.574;11.170;2023-04-15T02:28:05;3.67;;;3.37;;
13408;SDS011;6775;49.574;11.170;2023-04-15T02:30:33;5.63;;;3.43;;
13408;SDS011;6775;49.574;11.170;2023-04-15T02:33:02;3.47;;;3.17;;
13408;SDS011;6775;49.574;11.170;2023-04-15T02:35:30;5.23;;;3.10;;
13408;SDS011;6775;49.574;11.170;2023-04-15T02:37:58;4.07;;;2.90;;
13408;SDS011;6775;49.574;11.170;2023-04-15T02:40:26;3.97;;;3.33;;
13408;SDS011;6775;49.574;11.170;2023-04-15T02:42:54;3.23;;;2.80;;
13408;SDS011;6775;49.574;11.170;2023-04-15T02:45:22;3.30;;;3.00;;
13408;SDS011;6775;49.574;11.170;2023-04-15T02:47:52;3.60;;;3.30;;
13408;SDS011;6775;49.574;11.170;2023-04-15T02:50:22;3.77;;;3.00;;
13408;SDS011;6775;49.574;11.170;2023-04-15T02:52:50;3.07;;;2.77;;
13408;SDS011;6775;49.574;11.170;2023-04-15T02:55:18;3.00;;;2.70;;
13408;SDS011;6775;49.574;11.170;2023-04-15T02:57:46;3.57;;;3.27;;
13408;SDS011;6775;49.574;11.170;2023-04-15T03:00:14;3.77;;;3.20;;
13408;SDS011;6775;49.574;11.170;2023-04-15T03:02:42;5.27;;;3.73;;
13408;SDS011;6775;49.574;11.170;2023-04-15T03:05:12;3.97;;;3.53;;
13408;SDS011;6775;49.574;11.170;2023-04-15T03:07:42;3.83;;;3.53;;
13408;SDS011;6775;49.574;11.170;2023-04-15T03:10:10;3.50;;;3.20;;
13408;SDS011;6775;49.574;11.170;2023-04-15T03:12:37;4.30;;;3.50;;
13408;SDS011;6775;49.574;11.170;2023-04-15T03:15:06;5.67;;;3.80;;
13408;SDS011;6775;49.574;11.170;2023-04-15T03:17:35;4.00;;;3.60;;
13408;SDS011;6775;49.574;11.170;2023-04-15T03:20:03;3.60;;;3.30;;
13408;SDS011;6775;49.574;11.170;2023-04-15T03:22:32;4.47;;;3.60;;
13408;SDS011;6775;49.574;11.170;2023-04-15T03:25:01;3.50;;;2.87;;
13408;SDS011;6775;49.574;11.170;2023-04-15T03:27:29;3.50;;;3.20;;
13408;SDS011;6775;49.574;11.170;2023-04-15T03:29:57;3.33;;;3.03;;
13408;SDS011;6775;49.574;11.170;2023-04-15T03:32:25;4.67;;;3.80;;
13408;SDS011;6775;49.574;11.170;2023-04-15T03:34:52;4.07;;;3.50;;
13408;SDS011;6775;49.574;11.170;2023-04-15T03:37:20;3.63;;;3.30;;
13408;SDS011;6775;49.574;11.170;2023-04-15T03:39:48;3.07;;;2.77;;
13408;SDS011;6775;49.574;11.170;2023-04-15T03:42:17;4.37;;;3.30;;
13408;SDS011;6775;49.574;11.170;2023-04-15T03:44:45;3.57;;;3.20;;
13408;SDS011;6775;49.574;11.170;2023-04-15T03:47:13;3.30;;;3.00;;
13408;SDS011;6775;49.574;11.170;2023-04-15T03:49:41;3.43;;;3.10;;
13408;SDS011;6775;49.574;11.170;2023-04-15T03:52:09;3.63;;;3.10;;
13408;SDS011;6775;49.574;11.170;2023-04-15T03:54:37;3.57;;;3.17;;
13408;SDS011;6775;49.574;11.170;2023-04-15T03:57:04;3.50;;;3.20;;
13408;SDS011;6775;49.574;11.170;2023-04-15T03:59:33;3.87;;;3.47;;
13408;SDS011;6775;49.574;11.170;2023-04-15T04:02:01;3.57;;;3.00;;
13408;SDS011;6775;49.574;11.170;2023-04-15T04:04:29;4.57;;;3.10;;
13408;SDS011;6775;49.574;11.170;2023-04-15T04:06:57;3.43;;;3.00;;
13408;SDS011;6775;49.574;11.170;2023-04-15T04:09:25;3.43;;;3.13;;
13408;SDS011;6775;49.574;11.170;2023-04-15T04:11:53;3.87;;;3.30;;
13408;SDS011;6775;49.574;11.170;2023-04-15T04:14:21;3.47;;;3.17;;
13408;SDS011;6775;49.574;11.170;2023-04-15T04:16:55;4.67;;;3.37;;
13408;SDS011;6775;49.574;11.170;2023-04-15T04:19:23;5.87;;;3.30;;
13408;SDS011;6775;49.574;11.170;2023-04-15T04:21:51;3.60;;;3.23;;
13408;SDS011;6775;49.574;11.170;2023-04-15T04:24:19;3.47;;;3.17;;
13408;SDS011;6775;49.574;11.170;2023-04-15T04:26:47;3.37;;;3.07;;
13408;SDS011;6775;49.574;11.170;2023-04-15T04:29:14;3.07;;;2.77;;
13408;SDS011;6775;49.574;11.170;2023-04-15T04:31:42;3.47;;;3.03;;
13408;SDS011;6775;49.574;11.170;2023-04-15T04:34:11;3.70;;;2.73;;
13408;SDS011;6775;49.574;11.170;2023-04-15T04:36:39;4.27;;;2.90;;
13408;SDS011;6775;49.574;11.170;2023-04-15T04:39:07;3.40;;;2.93;;
13408;SDS011;6775;49.574;11.170;2023-04-15T04:41:35;3.27;;;2.97;;
13408;SDS011;6775;49.574;11.170;2023-04-15T04:44:03;3.00;;;2.67;;
13408;SDS011;6775;49.574;11.170;2023-04-15T04:46:31;4.00;;;2.80;;
13408;SDS011;6775;49.574;11.170;2023-04-15T04:48:58;3.87;;;3.50;;
13408;SDS011;6775;49.574;11.170;2023-04-15T04:51:28;3.73;;;3.33;;
13408;SDS011;6775;49.574;11.170;2023-04-15T04:53:56;3.97;;;3.17;;
13408;SDS011;6775;49.574;11.170;2023-04-15T04:56:24;2.90;;;2.70;;
13408;SDS011;6775;49.574;11.170;2023-04-15T04:58:52;3.10;;;2.73;;
13408;SDS011;6775;49.574;11.170;2023-04-15T05:01:19;2.97;;;2.77;;
13408;SDS011;6775;49.574;11.170;2023-04-15T05:03:47;3.67;;;2.90;;
13408;SDS011;6775;49.574;11.170;2023-04-15T05:06:15;3.00;;;2.77;;
13408;SDS011;6775;49.574;11.170;2023-04-15T05:08:44;3.40;;;2.53;;
13408;SDS011;6775;49.574;11.170;2023-04-15T05:11:12;3.10;;;2.60;;
13408;SDS011;6775;49.574;11.170;2023-04-15T05:13:40;4.60;;;3.40;;
13408;SDS011;6775;49.574;11.170;2023-04-15T05:16:08;4.10;;;3.20;;
13408;SDS011;6775;49.574;11.170;2023-04-15T05:18:36;3.83;;;3.00;;
13408;SDS011;6775;49.574;11.170;2023-04-15T05:21:04;4.40;;;3.00;;
13408;SDS011;6775;49.574;11.170;2023-04-15T05:23:32;5.37;;;3.53;;
13408;SDS011;6775;49.574;11.170;2023-04-15T05:26:01;2.87;;;2.57;;
13408;SDS011;6775;49.574;11.170;2023-04-15T05:28:29;3.57;;;3.27;;
13408;SDS011;6775;49.574;11.170;2023-04-15T05:30:57;4.03;;;2.83;;
13408;SDS011;6775;49.574;11.170;2023-04-15T05:33:25;5.47;;;3.70;;
13408;SDS011;6775;49.574;11.170;2023-04-15T05:35:53;4.70;;;3.03;;
13408;SDS011;6775;49.574;11.170;2023-04-15T05:38:21;5.90;;;3.30;;
13408;SDS011;6775;49.574;11.170;2023-04-15T05:40:49;2.53;;;2.33;;
13408;SDS011;6775;49.574;11.170;2023-04-15T05:43:18;3.47;;;2.93;;
13408;SDS011;6775;49.574;11.170;2023-04-15T05:45:46;3.73;;;3.07;;
13408;SDS011;6775;49.574;11.170;2023-04-15T05:48:14;3.93;;;3.53;;
13408;SDS011;6775;49.574;11.170;2023-04-15T05:50:42;3.40;;;3.10;;
13408;SDS011;6775;49.574;11.170;2023-04-15T05:53:10;3.63;;;3.30;;
13408;SDS011;6775;49.574;11.170;2023-04-15T05:55:38;3.77;;;3.27;;
13408;SDS011;6775;49.574;11.170;2023-04-15T05:58:06;4.57;;;3.70;;
13408;SDS011;6775;49.574;11.170;2023-04-15T06:00:35;5.97;;;3.80;;
13408;SDS011;6775;49.574;11.170;2023-04-15T06:03:03;4.07;;;3.00;;
13408;SDS011;6775;49.574;11.170;2023-04-15T06:05:31;4.33;;;3.40;;
13408;SDS011;6775;49.574;11.170;2023-04-15T06:07:59;9.40;;;5.63;;
13408;SDS011;6775;49.574;11.170;2023-04-15T06:10:27;9.43;;;5.43;;
13408;SDS011;6775;49.574;11.170;2023-04-15T06:12:56;7.10;;;4.57;;
13408;SDS011;6775;49.574;11.170;2023-04-15T06:15:23;6.10;;;5.13;;
13408;SDS011;6775;49.574;11.170;2023-04-15T06:17:52;6.40;;;5.10;;
13408;SDS011;6775;49.574;11.170;2023-04-15T06:20:20;6.37;;;4.67;;
13408;SDS011;6775;49.574;11.170;2023-04-15T06:22:49;5.53;;;4.30;;
13408;SDS011;6775;49.574;11.170;2023-04-15T06:25:17;4.17;;;3.63;;
13408;SDS011;6775;49.574;11.170;2023-04-15T06:27:45;39.80;;;19.67;;
13408;SDS011;6775;49.574;11.170;2023-04-15T06:30:13;21.27;;;12.80;;
13408;SDS011;6775;49.574;11.170;2023-04-15T06:32:41;21.47;;;13.67;;
13408;SDS011;6775;49.574;11.170;2023-04-15T06:35:10;13.60;;;9.70;;
13408;SDS011;6775;49.574;11.170;2023-04-15T06:37:41;9.83;;;7.13;;
13408;SDS011;6775;49.574;11.170;2023-04-15T06:40:09;8.77;;;6.13;;
13408;SDS011;6775;49.574;11.170;2023-04-15T06:42:37;5.90;;;5.27;;
13408;SDS011;6775;49.574;11.170;2023-04-15T06:45:05;5.73;;;4.33;;
13408;SDS011;6775;49.574;11.170;2023-04-15T06:47:34;5.50;;;4.40;;
13408;SDS011;6775;49.574;11.170;2023-04-15T06:50:02;4.93;;;4.43;;
13408;SDS011;6775;49.574;11.170;2023-04-15T06:52:31;4.37;;;3.97;;
13408;SDS011;6775;49.574;11.170;2023-04-15T06:54:59;3.53;;;3.23;;
13408;SDS011;6775;49.574;11.170;2023-04-15T06:57:28;3.90;;;3.27;;
13408;SDS011;6775;49.574;11.170;2023-04-15T06:59:57;4.20;;;3.80;;
13408;SDS011;6775;49.574;11.170;2023-04-15T07:02:26;4.53;;;4.03;;
13408;SDS011;6775;49.574;11.170;2023-04-15T07:04:54;4.50;;;4.10;;
13408;SDS011;6775;49.574;11.170;2023-04-15T07:07:22;4.27;;;3.70;;
13408;SDS011;6775;49.574;11.170;2023-04-15T07:09:52;5.03;;;3.47;;
13408;SDS011;6775;49.574;11.170;2023-04-15T07:12:19;4.63;;;3.80;;
13408;SDS011;6775;49.574;11.170;2023-04-15T07:14:47;4.87;;;3.57;;
13408;SDS011;6775;49.574;11.170;2023-04-15T07:17:15;4.37;;;3.50;;
13408;SDS011;6775;49.574;11.170;2023-04-15T07:19:43;4.07;;;3.20;;
13408;SDS011;6775;49.574;11.170;2023-04-15T07:22:11;5.17;;;4.67;;
13408;SDS011;6775;49.574;11.170;2023-04-15T07:24:39;6.30;;;4.07;;
13408;SDS011;6775;49.574;11.170;2023-04-15T07:27:09;5.10;;;3.73;;
13408;SDS011;6775;49.574;11.170;2023-04-15T07:29:36;4.07;;;3.67;;
13408;SDS011;6775;49.574;11.170;2023-04-15T07:32:04;4.43;;;4.03;;
13408;SDS011;6775;49.574;11.170;2023-04-15T07:34:32;5.57;;;4.77;;
13408;SDS011;6775;49.574;11.170;2023-04-15T07:37:00;3.57;;;3.27;;
13408;SDS011;6775;49.574;11.170;2023-04-15T07:39:28;6.33;;;4.40;;
13408;SDS011;6775;49.574;11.170;2023-04-15T07:41:56;4.87;;;3.93;;
13408;SDS011;6775;49.574;11.170;2023-04-15T07:44:26;4.43;;;3.27;;
13408;SDS011;6775;49.574;11.170;2023-04-15T07:46:54;3.37;;;3.07;;
13408;SDS011;6775;49.574;11.170;2023-04-15T07:49:22;4.10;;;3.50;;
13408;SDS011;6775;49.574;11.170;2023-04-15T07:51:50;4.83;;;3.40;;
13408;SDS011;6775;49.574;11.170;2023-04-15T07:54:18;4.13;;;3.10;;
13408;SDS011;6775;49.574;11.170;2023-04-15T07:56:46;4.13;;;3.10;;
13408;SDS011;6775;49.574;11.170;2023-04-15T07:59:14;4.20;;;2.70;;
13408;SDS011;6775;49.574;11.170;2023-04-15T08:01:44;3.20;;;2.90;;
13408;SDS011;6775;49.574;11.170;2023-04-15T08:04:12;4.13;;;3.73;;
13408;SDS011;6775;49.574;11.170;2023-04-15T08:06:41;3.20;;;2.90;;
13408;SDS011;6775;49.574;11.170;2023-04-15T08:09:09;4.87;;;3.97;;
13408;SDS011;6775;49.574;11.170;2023-04-15T08:11:37;3.67;;;3.37;;
13408;SDS011;6775;49.574;11.170;2023-04-15T08:14:04;3.27;;;2.93;;
13408;SDS011;6775;49.574;11.170;2023-04-15T08:16:32;3.77;;;3.23;;
13408;SDS011;6775;49.574;11.170;2023-04-15T08:19:02;3.70;;;2.97;;
13408;SDS011;6775;49.574;11.170;2023-04-15T08:21:30;3.20;;;2.90;;
13408;SDS011;6775;49.574;11.170;2023-04-15T08:23:58;4.37;;;3.40;;
13408;SDS011;6775;49.574;11.170;2023-04-15T08:26:26;3.23;;;2.87;;
13408;SDS011;6775;49.574;11.170;2023-04-15T08:28:55;5.63;;;3.97;;
13408;SDS011;6775;49.574;11.170;2023-04-15T08:31:22;4.80;;;3.63;;
13408;SDS011;6775;49.574;11.170;2023-04-15T08:33:53;2.97;;;2.60;;
13408;SDS011;6775;49.574;11.170;2023-04-15T08:36:23;3.60;;;3.30;;
13408;SDS011;6775;49.574;11.170;2023-04-15T08:38:52;4.60;;;3.27;;
13408;SDS011;6775;49.574;11.170;2023-04-15T08:41:20;5.33;;;3.90;;
13408;SDS011;6775;49.574;11.170;2023-04-15T08:43:53;5.70;;;4.87;;
13408;SDS011;6775;49.574;11.170;2023-04-15T08:46:24;4.33;;;3.10;;
13408;SDS011;6775;49.574;11.170;2023-04-15T08:48:53;4.30;;;3.90;;
13408;SDS011;6775;49.574;11.170;2023-04-15T08:51:25;4.60;;;3.97;;
13408;SDS011;6775;49.574;11.170;2023-04-15T08:53:54;4.10;;;3.70;;
13408;SDS011;6775;49.574;11.170;2023-04-15T08:56:23;4.30;;;3.83;;
13408;SDS011;6775;49.574;11.170;2023-04-15T08:58:52;4.10;;;3.67;;
13408;SDS011;6775;49.574;11.170;2023-04-15T09:01:20;6.17;;;3.63;;
13408;SDS011;6775;49.574;11.170;2023-04-15T09:03:49;3.97;;;3.57;;
13408;SDS011;6775;49.574;11.170;2023-04-15T09:06:19;6.80;;;5.60;;
13408;SDS011;6775;49.574;11.170;2023-04-15T09:08:49;5.37;;;4.20;;
13408;SDS011;6775;49.574;11.170;2023-04-15T09:11:18;5.00;;;3.93;;
13408;SDS011;6775;49.574;11.170;2023-04-15T09:13:47;4.57;;;4.17;;
13408;SDS011;6775;49.574;11.170;2023-04-15T09:16:15;4.83;;;4.00;;
13408;SDS011;6775;49.574;11.170;2023-04-15T09:18:44;4.90;;;3.73;;
13408;SDS011;6775;49.574;11.170;2023-04-15T09:21:12;3.50;;;3.00;;
13408;SDS011;6775;49.574;11.170;2023-04-15T09:23:54;4.53;;;4.03;;
13408;SDS011;6775;49.574;11.170;2023-04-15T09:26:29;3.97;;;3.23;;
13408;SDS011;6775;49.574;11.170;2023-04-15T09:29:02;3.57;;;3.23;;
13408;SDS011;6775;49.574;11.170;2023-04-15T09:31:31;6.10;;;4.27;;
13408;SDS011;6775;49.574;11.170;2023-04-15T09:33:59;4.57;;;3.80;;
13408;SDS011;6775;49.574;11.170;2023-04-15T09:36:28;4.73;;;3.10;;
13408;SDS011;6775;49.574;11.170;2023-04-15T09:38:57;3.47;;;2.70;;
13408;SDS011;6775;49.574;11.170;2023-04-15T09:41:26;3.00;;;2.70;;
13408;SDS011;6775;49.574;11.170;2023-04-15T09:43:54;3.47;;;2.43;;
13408;SDS011;6775;49.574;11.170;2023-04-15T09:49:08;2.60;;;2.20;;
13408;SDS011;6775;49.574;11.170;2023-04-15T09:51:37;4.40;;;2.20;;
13408;SDS011;6775;49.574;11.170;2023-04-15T09:54:06;3.57;;;2.20;;
13408;SDS011;6775;49.574;11.170;2023-04-15T09:56:34;3.47;;;1.87;;
13408;SDS011;6775;49.574;11.170;2023-04-15T09:59:03;3.13;;;2.07;;
13408;SDS011;6775;49.574;11.170;2023-04-15T10:01:32;1.87;;;1.70;;
13408;SDS011;6775;49.574;11.170;2023-04-15T10:04:00;2.80;;;1.60;;
13408;SDS011;6775;49.574;11.170;2023-04-15T10:06:30;3.27;;;1.73;;
13408;SDS011;6775;49.574;11.170;2023-04-15T10:08:59;2.20;;;1.37;;
13408;SDS011;6775;49.574;11.170;2023-04-15T10:11:29;2.63;;;1.33;;
13408;SDS011;6775;49.574;11.170;2023-04-15T10:13:59;3.27;;;1.20;;
13408;SDS011;6775;49.574;11.170;2023-04-15T10:16:28;1.40;;;1.30;;
13408;SDS011;6775;49.574;11.170;2023-04-15T10:19:00;1.83;;;1.57;;
13408;SDS011;6775;49.574;11.170;2023-04-15T10:21:29;2.40;;;1.63;;
13408;SDS011;6775;49.574;11.170;2023-04-15T10:23:57;1.93;;;1.70;;
13408;SDS011;6775;49.574;11.170;2023-04-15T10:26:27;1.90;;;1.70;;
13408;SDS011;6775;49.574;11.170;2023-04-15T10:28:57;2.67;;;2.10;;
13408;SDS011;6775;49.574;11.170;2023-04-15T10:31:26;2.93;;;2.57;;
13408;SDS011;6775;49.574;11.170;2023-04-15T10:33:54;3.03;;;2.10;;
13408;SDS011;6775;49.574;11.170;2023-04-15T10:36:24;3.30;;;2.37;;
13408;SDS011;6775;49.574;11.170;2023-04-15T10:38:52;2.30;;;2.10;;
13408;SDS011;6775;49.574;11.170;2023-04-15T10:41:21;2.77;;;2.13;;
13408;SDS011;6775;49.574;11.170;2023-04-15T10:43:50;3.03;;;2.43;;
13408;SDS011;6775;49.574;11.170;2023-04-15T10:46:33;2.07;;;1.87;;
13408;SDS011;6775;49.574;11.170;2023-04-15T10:49:06;1.67;;;1.57;;
13408;SDS011;6775;49.574;11.170;2023-04-15T10:51:36;2.43;;;2.23;;
13408;SDS011;6775;49.574;11.170;2023-04-15T10:54:08;2.10;;;1.90;;
13408;SDS011;6775;49.574;11.170;2023-04-15T10:56:40;2.13;;;1.93;;
13408;SDS011;6775;49.574;11.170;2023-04-15T10:59:09;2.50;;;2.20;;
13408;SDS011;6775;49.574;11.170;2023-04-15T11:01:50;1.80;;;1.70;;
13408;SDS011;6775;49.574;11.170;2023-04-15T11:07:35;1.73;;;1.63;;
13408;SDS011;6775;49.574;11.170;2023-04-15T11:13:19;2.10;;;1.90;;
13408;SDS011;6775;49.574;11.170;2023-04-15T11:15:54;1.77;;;1.67;;
13408;SDS011;6775;49.574;11.170;2023-04-15T11:18:26;2.10;;;1.80;;
13408;SDS011;6775;49.574;11.170;2023-04-15T11:20:59;2.30;;;1.80;;
13408;SDS011;6775;49.574;11.170;2023-04-15T11:23:29;1.47;;;1.37;;
13408;SDS011;6775;49.574;11.170;2023-04-15T11:26:00;1.50;;;1.40;;
13408;SDS011;6775;49.574;11.170;2023-04-15T11:28:30;2.00;;;1.30;;
13408;SDS011;6775;49.574;11.170;2023-04-15T11:31:04;2.20;;;1.53;;
13408;SDS011;6775;49.574;11.170;2023-04-15T11:33:35;1.30;;;1.20;;
13408;SDS011;6775;49.574;11.170;2023-04-15T11:36:03;1.30;;;1.20;;
13408;SDS011;6775;49.574;11.170;2023-04-15T11:38:31;1.37;;;1.27;;
13408;SDS011;6775;49.574;11.170;2023-04-15T11:41:00;1.07;;;0.90;;
13408;SDS011;6775;49.574;11.170;2023-04-15T11:43:28;1.40;;;1.30;;
13408;SDS011;6775;49.574;11.170;2023-04-15T11:46:01;1.03;;;0.93;;
13408;SDS011;6775;49.574;11.170;2023-04-15T11:48:30;1.23;;;1.10;;
13408;SDS011;6775;49.574;11.170;2023-04-15T11:51:01;0.90;;;0.90;;
13408;SDS011;6775;49.574;11.170;2023-04-15T11:53:37;1.23;;;1.13;;
13408;SDS011;6775;49.574;11.170;2023-04-15T11:56:07;1.30;;;1.00;;
13408;SDS011;6775;49.574;11.170;2023-04-15T11:58:36;1.00;;;0.90;;
13408;SDS011;6775;49.574;11.170;2023-04-15T12:01:05;1.10;;;1.00;;
13408;SDS011;6775;49.574;11.170;2023-04-15T12:03:36;1.30;;;1.20;;
13408;SDS011;6775;49.574;11.170;2023-04-15T12:06:11;1.40;;;1.30;;
13408;SDS011;6775;49.574;11.170;2023-04-15T12:11:39;1.50;;;1.40;;
13408;SDS011;6775;49.574;11.170;2023-04-15T12:14:10;1.30;;;1.20;;
13408;SDS011;6775;49.574;11.170;2023-04-15T12:16:40;1.27;;;1.03;;
13408;SDS011;6775;49.574;11.170;2023-04-15T12:19:15;1.37;;;1.20;;
13408;SDS011;6775;49.574;11.170;2023-04-15T12:21:46;1.40;;;1.30;;
13408;SDS011;6775;49.574;11.170;2023-04-15T12:24:18;1.80;;;1.10;;
13408;SDS011;6775;49.574;11.170;2023-04-15T12:26:48;1.90;;;1.40;;
13408;SDS011;6775;49.574;11.170;2023-04-15T12:29:17;1.43;;;1.33;;
13408;SDS011;6775;49.574;11.170;2023-04-15T12:31:46;1.20;;;1.10;;
13408;SDS011;6775;49.574;11.170;2023-04-15T12:34:16;1.30;;;1.20;;
13408;SDS011;6775;49.574;11.170;2023-04-15T12:36:47;1.63;;;1.30;;
13408;SDS011;6775;49.574;11.170;2023-04-15T12:39:15;2.50;;;1.40;;
13408;SDS011;6775;49.574;11.170;2023-04-15T12:41:43;1.00;;;0.90;;
13408;SDS011;6775;49.574;11.170;2023-04-15T12:44:10;1.23;;;1.10;;
13408;SDS011;6775;49.574;11.170;2023-04-15T12:46:38;1.30;;;1.20;;
13408;SDS011;6775;49.574;11.170;2023-04-15T12:49:06;0.90;;;0.90;;
13408;SDS011;6775;49.574;11.170;2023-04-15T12:51:35;1.10;;;1.00;;
13408;SDS011;6775;49.574;11.170;2023-04-15T12:54:04;1.10;;;1.00;;
13408;SDS011;6775;49.574;11.170;2023-04-15T12:56:32;0.97;;;0.97;;
13408;SDS011;6775;49.574;11.170;2023-04-15T12:59:00;1.13;;;1.03;;
13408;SDS011;6775;49.574;11.170;2023-04-15T13:01:27;1.30;;;1.20;;
13408;SDS011;6775;49.574;11.170;2023-04-15T13:03:55;1.20;;;0.90;;
13408;SDS011;6775;49.574;11.170;2023-04-15T13:06:23;1.37;;;1.00;;
13408;SDS011;6775;49.574;11.170;2023-04-15T13:08:51;1.17;;;1.07;;
13408;SDS011;6775;49.574;11.170;2023-04-15T13:11:25;0.80;;;0.80;;
13408;SDS011;6775;49.574;11.170;2023-04-15T13:13:55;1.13;;;0.80;;
13408;SDS011;6775;49.574;11.170;2023-04-15T13:16:23;0.73;;;0.73;;
13408;SDS011;6775;49.574;11.170;2023-04-15T13:18:51;1.00;;;0.90;;
13408;SDS011;6775;49.574;11.170;2023-04-15T13:21:19;1.00;;;0.80;;
13408;SDS011;6775;49.574;11.170;2023-04-15T13:23:47;0.80;;;0.80;;
13408;SDS011;6775;49.574;11.170;2023-04-15T13:26:16;1.10;;;1.00;;
13408;SDS011;6775;49.574;11.170;2023-04-15T13:28:45;1.10;;;1.00;;
13408;SDS011;6775;49.574;11.170;2023-04-15T13:31:13;0.87;;;0.87;;
13408;SDS011;6775;49.574;11.170;2023-04-15T13:33:41;1.10;;;1.00;;
13408;SDS011;6775;49.574;11.170;2023-04-15T13:36:09;1.23;;;1.13;;
13408;SDS011;6775;49.574;11.170;2023-04-15T13:38:36;1.53;;;1.07;;
13408;SDS011;6775;49.574;11.170;2023-04-15T13:41:04;1.10;;;1.07;;
13408;SDS011;6775;49.574;11.170;2023-04-15T13:43:32;1.40;;;1.30;;
13408;SDS011;6775;49.574;11.170;2023-04-15T13:46:01;2.03;;;1.53;;
13408;SDS011;6775;49.574;11.170;2023-04-15T13:48:29;2.03;;;1.70;;
13408;SDS011;6775;49.574;11.170;2023-04-15T13:50:57;2.77;;;1.80;;
13408;SDS011;6775;49.574;11.170;2023-04-15T13:53:25;10.37;;;5.50;;
13408;SDS011;6775;49.574;11.170;2023-04-15T13:56:04;10.00;;;5.47;;
13408;SDS011;6775;49.574;11.170;2023-04-15T13:58:32;12.03;;;6.50;;
13408;SDS011;6775;49.574;11.170;2023-04-15T14:01:01;11.07;;;5.67;;
13408;SDS011;6775;49.574;11.170;2023-04-15T14:03:31;8.53;;;4.93;;
13408;SDS011;6775;49.574;11.170;2023-04-15T14:05:59;4.70;;;2.77;;
13408;SDS011;6775;49.574;11.170;2023-04-15T14:08:27;2.63;;;2.17;;
13408;SDS011;6775;49.574;11.170;2023-04-15T14:10:56;2.20;;;2.00;;
13408;SDS011;6775;49.574;11.170;2023-04-15T14:13:24;2.40;;;1.73;;
13408;SDS011;6775;49.574;11.170;2023-04-15T14:15:52;2.00;;;1.80;;
13408;SDS011;6775;49.574;11.170;2023-04-15T14:18:21;1.87;;;1.77;;
13408;SDS011;6775;49.574;11.170;2023-04-15T14:20:49;2.07;;;1.97;;
13408;SDS011;6775;49.574;11.170;2023-04-15T14:23:17;1.90;;;1.80;;
13408;SDS011;6775;49.574;11.170;2023-04-15T14:25:44;1.87;;;1.60;;
13408;SDS011;6775;49.574;11.170;2023-04-15T14:28:13;2.17;;;1.90;;
13408;SDS011;6775;49.574;11.170;2023-04-15T14:30:42;2.10;;;1.70;;
13408;SDS011;6775;49.574;11.170;2023-04-15T14:33:10;1.63;;;1.53;;
13408;SDS011;6775;49.574;11.170;2023-04-15T14:35:39;1.40;;;1.30;;
13408;SDS011;6775;49.574;11.170;2023-04-15T14:38:07;1.93;;;1.60;;
13408;SDS011;6775;49.574;11.170;2023-04-15T14:40:36;2.33;;;2.00;;
13408;SDS011;6775;49.574;11.170;2023-04-15T14:43:04;1.80;;;1.60;;
13408;SDS011;6775;49.574;11.170;2023-04-15T14:45:33;2.00;;;1.73;;
13408;SDS011;6775;49.574;11.170;2023-04-15T14:48:01;1.80;;;1.70;;
13408;SDS011;6775;49.574;11.170;2023-04-15T14:50:29;1.97;;;1.40;;
13408;SDS011;6775;49.574;11.170;2023-04-15T14:52:58;2.10;;;1.90;;
13408;SDS011;6775;49.574;11.170;2023-04-15T14:55:26;1.60;;;1.50;;
13408;SDS011;6775;49.574;11.170;2023-04-15T14:57:54;2.20;;;1.80;;
13408;SDS011;6775;49.574;11.170;2023-04-15T15:00:22;1.70;;;1.60;;
13408;SDS011;6775;49.574;11.170;2023-04-15T15:02:50;2.40;;;1.60;;
13408;SDS011;6775;49.574;11.170;2023-04-15T15:05:18;1.90;;;1.70;;
13408;SDS011;6775;49.574;11.170;2023-04-15T15:07:46;1.73;;;1.60;;
13408;SDS011;6775;49.574;11.170;2023-04-15T15:10:15;1.40;;;1.30;;